Main page
METAR-TAF:

METAR-TAF

Airports :

Ghriss, Algeria

Ghriss Airport

latitude: 35-12N, longitude: 000-08E, elevation: 514 m

Current weather observation

The report was made 14 minutes ago, at 07:00 UTC
Calm wind
Temperature 3°C
Humidity 93%
Pressure 1021 hPa
Visibility: 8000 m
Few clouds at a height of 2600 ft

METAR: DAOV 180700Z 00000KT 8000 FEW026 03/02 Q1021

Time: 08:14 (07:14 UTC)

Forecast

The report was made 2 hours and 14 minutes ago, at 05:00 UTC
Forecast valid from 18 at 06 UTC to 18 at 15 UTC
Wind 2 kt from variable directions
Visibility 10 km or more
Scattered clouds at a height of 2000 ft
Probability 40% :
Temporary
from 18 at 06 UTC to 18 at 10 UTC
Visibility: 2000 m
Scattered clouds at a height of 1000 ft
mist
Becoming
from 18 at 10 UTC to 18 at 13 UTC
Wind 10 kt from the North
Scattered clouds at a height of 2000 ft
Scattered clouds at a height of 10000 ft

TAF: DAOV 180500Z 1806/1815 VRB02KT 9999 SCT020 PROB40 TEMPO 1806/1810 2000 BR SCT010 BECMG 1810/1813 36010KT SCT020 SCT100

Weather observations and forecasts of more than 4000 airports (METAR and TAF reports).

The available stations are represented by yellow and red dots on the map.

Hover mouse over dot to see the name of the station.

Then click to see weather observations and forecasts.

To change the map : click on the green buttons with a black cross to zoom in, on the green button with a dash to zoom out, or on the green arrows for adjacent maps.


METAR-TAF: